Vassilios Xxi — J8B2485 — position and weather

sailwx.info

Track history (hours):
 
Tides and Currents Weather Stations Pressure Air Temp Water Temp Dewpoint Dewpoint Depression Visibility Wind Speed Wind Dir Waves Ship Positions

Vassilios Xxi

Last reported at 2018-Jan-07 17:16 UTC. Time now 2018-Jan-18 19:46 UTC.
Position N 35°50' E 014°51'.
Warning: this ship's position is 11 days out of date.

Length 101 m; draft 4.4 m.

Type: Ship (hazmat cat A). MMSI: 377077000.

Date/timePositionNaut miles runAvg speedWind from/ knotsBaromVisibWave heightAir tempDewpointWater temp
2018-Jan-07 17:16N 35°50' E 014°51'0 0.0
2018-Jan-07 16:58N 35°50' E 014°51'0 0.0
2018-Jan-07 16:28N 35°50' E 014°51'0 0.0
2018-Jan-07 15:49N 35°50' E 014°51'0 0.0
2018-Jan-07 13:58N 35°50' E 014°51'0 0.0
2018-Jan-07 09:55N 35°50' E 014°51'0 0.0
2018-Jan-06 13:37N 35°50' E 014°51'0 0.0
2018-Jan-06 13:28N 35°50' E 014°51'0 0.0
2018-Jan-06 12:58N 35°50' E 014°51'0 0.0
2018-Jan-06 12:10N 35°50' E 014°51'0 0.0
2018-Jan-06 10:49N 35°50' E 014°51'0 0.0
2018-Jan-06 06:37N 35°50' E 014°51'0 0.1
2018-Jan-06 06:22N 35°50' E 014°51'0 0.1
2018-Jan-06 05:55N 35°50' E 014°51'0 0.1
2018-Jan-06 05:28N 35°50' E 014°51'0 0.1
2018-Jan-06 04:58N 35°50' E 014°51'0 0.0
2018-Jan-06 04:28N 35°50' E 014°51'0 0.0
2018-Jan-06 03:58N 35°50' E 014°51'0 0.0
2018-Jan-06 03:28N 35°50' E 014°51'0 0.0
2018-Jan-06 03:00N 35°50' E 014°51'0 0.0
2018-Jan-06 02:28N 35°50' E 014°51'0 0.0
2018-Jan-06 01:58N 35°50' E 014°51'0 0.0
2018-Jan-06 01:28N 35°50' E 014°51'0 0.0
2018-Jan-06 00:56N 35°50' E 014°51'0 0.0
2018-Jan-06 00:28N 35°50' E 014°51'0 0.0
2018-Jan-05 23:55N 35°50' E 014°51'0 0.0
2018-Jan-05 23:28N 35°50' E 014°51'0 0.0
2018-Jan-05 22:58N 35°50' E 014°51'0 0.0
2018-Jan-05 22:28N 35°50' E 014°51'0 0.0
2018-Jan-05 21:58N 35°50' E 014°51'0 0.0
2018-Jan-05 21:19N 35°50' E 014°51'  
2018-Jan-03 10:25N 35°46' E 014°46'5 6.6
2018-Jan-03 09:39N 35°44' E 014°40'1 6.8
2018-Jan-03 09:28N 35°44' E 014°38'3 6.7
2018-Jan-03 09:00N 35°44' E 014°35'5 6.8
2018-Jan-03 08:17N 35°43' E 014°29'2 6.4
2018-Jan-03 08:00N 35°43' E 014°26'3 5.9
2018-Jan-03 07:30N 35°44' E 014°23'3 6.3
2018-Jan-03 07:00N 35°46' E 014°20'4 6.9
2018-Jan-03 06:30N 35°49' E 014°17'3 6.7
2018-Jan-03 06:00N 35°52' E 014°15'3 6.3
2018-Jan-03 05:30N 35°55' E 014°16'3 6.4
2018-Jan-03 05:00N 35°58' E 014°17'2 3.8
2018-Jan-03 04:31N 35°56' E 014°16'1 2.9
2018-Jan-03 04:00N 35°55' E 014°17'1 2.7
2018-Jan-03 03:30N 35°54' E 014°18'1 2.6
2018-Jan-03 03:00N 35°52' E 014°18'1 2.1
2018-Jan-03 02:30N 35°52' E 014°19'1 1.9
2018-Jan-03 02:00N 35°51' E 014°20'1 2.2
2018-Jan-03 01:30N 35°50' E 014°20'1 2.2
2018-Jan-03 01:00N 35°49' E 014°21'1 1.8
2018-Jan-03 00:30N 35°48' E 014°21'1 1.7
2018-Jan-03 00:00N 35°48' E 014°22'1 1.8
2018-Jan-02 23:30N 35°47' E 014°23'1 2.0
2018-Jan-02 22:59N 35°46' E 014°24'24 3.5
2018-Jan-02 16:09N 35°51' E 014°52'  
2017-Dec-30 13:07N 35°54' E 014°51'1 3.1
2017-Dec-30 12:52N 35°54' E 014°51'2 5.0
2017-Dec-30 12:30N 35°52' E 014°51'4 7.6
2017-Dec-30 12:00N 35°50' E 014°47'4 7.8
2017-Dec-30 11:30N 35°48' E 014°43'4 7.6
2017-Dec-30 10:57N 35°47' E 014°38'4 7.3
2017-Dec-30 10:21N 35°46' E 014°32'4 7.2
2017-Dec-30 09:48N 35°45' E 014°28'2 7.3
2017-Dec-30 09:30N 35°45' E 014°25'4 7.8
2017-Dec-30 09:00N 35°47' E 014°21'3 7.1
2017-Dec-30 08:31N 35°50' E 014°18'3 6.7
2017-Dec-30 08:00N 35°53' E 014°17'3 6.3
2017-Dec-30 07:30N 35°57' E 014°16'0 0.3
2017-Dec-30 07:00N 35°56' E 014°16'2 3.6
2017-Dec-30 06:30N 35°55' E 014°17'2 3.6
2017-Dec-30 06:00N 35°53' E 014°17'2 3.1
2017-Dec-30 05:30N 35°51' E 014°18'2 3.1
2017-Dec-30 05:00N 35°50' E 014°20'2 3.3
2017-Dec-30 04:30N 35°49' E 014°21'2 3.2
2017-Dec-30 04:00N 35°49' E 014°23'2 4.7
2017-Dec-30 03:30N 35°50' E 014°21'3 6.3
2017-Dec-30 03:00N 35°52' E 014°18'3 5.9
2017-Dec-30 02:30N 35°55' E 014°17'3 5.3
2017-Dec-30 02:00N 35°58' E 014°17'2 3.9
2017-Dec-30 01:30N 35°56' E 014°17'1 1.4
2017-Dec-30 01:00N 35°56' E 014°18'3 5.9
2017-Dec-30 00:31N 35°58' E 014°16'2 4.2
2017-Dec-30 00:00N 35°60' E 014°14'2 3.8
2017-Dec-29 23:30N 35°58' E 014°15'2 3.6
2017-Dec-29 23:00N 35°56' E 014°15'2 3.4
2017-Dec-29 22:30N 35°55' E 014°16'2 3.5
2017-Dec-29 22:00N 35°53' E 014°17'2 3.2
2017-Dec-29 21:30N 35°52' E 014°18'2 3.0
2017-Dec-29 21:00N 35°51' E 014°20'1 2.7
2017-Dec-29 20:30N 35°50' E 014°21'1 2.3
2017-Dec-29 20:00N 35°49' E 014°21'1 2.0
2017-Dec-29 19:31N 35°48' E 014°22'1 1.6
2017-Dec-29 19:00N 35°47' E 014°22'1 2.1
2017-Dec-29 18:30N 35°46' E 014°23'1 2.3
2017-Dec-29 18:00N 35°46' E 014°24'20 5.2
2017-Dec-29 14:11N 35°49' E 014°48'2 7.7
2017-Dec-29 13:59N 35°51' E 014°49'  
Track history (hours):
 
Tides and Currents Weather Stations Pressure Air Temp Water Temp Dewpoint Dewpoint Depression Visibility Wind Speed Wind Dir Waves Ship Positions

Vassilios Xxi

Last reported at 2018-Jan-07 17:16 UTC. Time now 2018-Jan-18 19:46 UTC.
Position N 35°50' E 014°51'.
Warning: this ship's position is 11 days out of date.

Length 101 m; draft 4.4 m.

Type: Ship (hazmat cat A). MMSI: 377077000.

Date/timePositionNaut miles runAvg speedWind from/ knotsBaromVisibWave heightAir tempDewpointWater temp
2018-Jan-07 17:16N 35°50' E 014°51'0 0.0
2018-Jan-07 16:58N 35°50' E 014°51'0 0.0
2018-Jan-07 16:28N 35°50' E 014°51'0 0.0
2018-Jan-07 15:49N 35°50' E 014°51'0 0.0
2018-Jan-07 13:58N 35°50' E 014°51'0 0.0
2018-Jan-07 09:55N 35°50' E 014°51'0 0.0
2018-Jan-06 13:37N 35°50' E 014°51'0 0.0
2018-Jan-06 13:28N 35°50' E 014°51'0 0.0
2018-Jan-06 12:58N 35°50' E 014°51'0 0.0
2018-Jan-06 12:10N 35°50' E 014°51'0 0.0
2018-Jan-06 10:49N 35°50' E 014°51'0 0.0
2018-Jan-06 06:37N 35°50' E 014°51'0 0.1
2018-Jan-06 06:22N 35°50' E 014°51'0 0.1
2018-Jan-06 05:55N 35°50' E 014°51'0 0.1
2018-Jan-06 05:28N 35°50' E 014°51'0 0.1
2018-Jan-06 04:58N 35°50' E 014°51'0 0.0
2018-Jan-06 04:28N 35°50' E 014°51'0 0.0
2018-Jan-06 03:58N 35°50' E 014°51'0 0.0
2018-Jan-06 03:28N 35°50' E 014°51'0 0.0
2018-Jan-06 03:00N 35°50' E 014°51'0 0.0
2018-Jan-06 02:28N 35°50' E 014°51'0 0.0
2018-Jan-06 01:58N 35°50' E 014°51'0 0.0
2018-Jan-06 01:28N 35°50' E 014°51'0 0.0
2018-Jan-06 00:56N 35°50' E 014°51'0 0.0
2018-Jan-06 00:28N 35°50' E 014°51'0 0.0
2018-Jan-05 23:55N 35°50' E 014°51'0 0.0
2018-Jan-05 23:28N 35°50' E 014°51'0 0.0
2018-Jan-05 22:58N 35°50' E 014°51'0 0.0
2018-Jan-05 22:28N 35°50' E 014°51'0 0.0
2018-Jan-05 21:58N 35°50' E 014°51'0 0.0
2018-Jan-05 21:19N 35°50' E 014°51'  
2018-Jan-03 10:25N 35°46' E 014°46'5 6.6
2018-Jan-03 09:39N 35°44' E 014°40'1 6.8
2018-Jan-03 09:28N 35°44' E 014°38'3 6.7
2018-Jan-03 09:00N 35°44' E 014°35'5 6.8
2018-Jan-03 08:17N 35°43' E 014°29'2 6.4
2018-Jan-03 08:00N 35°43' E 014°26'3 5.9
2018-Jan-03 07:30N 35°44' E 014°23'3 6.3
2018-Jan-03 07:00N 35°46' E 014°20'4 6.9
2018-Jan-03 06:30N 35°49' E 014°17'3 6.7
2018-Jan-03 06:00N 35°52' E 014°15'3 6.3
2018-Jan-03 05:30N 35°55' E 014°16'3 6.4
2018-Jan-03 05:00N 35°58' E 014°17'2 3.8
2018-Jan-03 04:31N 35°56' E 014°16'1 2.9
2018-Jan-03 04:00N 35°55' E 014°17'1 2.7
2018-Jan-03 03:30N 35°54' E 014°18'1 2.6
2018-Jan-03 03:00N 35°52' E 014°18'1 2.1
2018-Jan-03 02:30N 35°52' E 014°19'1 1.9
2018-Jan-03 02:00N 35°51' E 014°20'1 2.2
2018-Jan-03 01:30N 35°50' E 014°20'1 2.2
2018-Jan-03 01:00N 35°49' E 014°21'1 1.8
2018-Jan-03 00:30N 35°48' E 014°21'1 1.7
2018-Jan-03 00:00N 35°48' E 014°22'1 1.8
2018-Jan-02 23:30N 35°47' E 014°23'1 2.0
2018-Jan-02 22:59N 35°46' E 014°24'24 3.5
2018-Jan-02 16:09N 35°51' E 014°52'  
2017-Dec-30 13:07N 35°54' E 014°51'1 3.1
2017-Dec-30 12:52N 35°54' E 014°51'2 5.0
2017-Dec-30 12:30N 35°52' E 014°51'4 7.6
2017-Dec-30 12:00N 35°50' E 014°47'4 7.8
2017-Dec-30 11:30N 35°48' E 014°43'4 7.6
2017-Dec-30 10:57N 35°47' E 014°38'4 7.3
2017-Dec-30 10:21N 35°46' E 014°32'4 7.2
2017-Dec-30 09:48N 35°45' E 014°28'2 7.3
2017-Dec-30 09:30N 35°45' E 014°25'4 7.8
2017-Dec-30 09:00N 35°47' E 014°21'3 7.1
2017-Dec-30 08:31N 35°50' E 014°18'3 6.7
2017-Dec-30 08:00N 35°53' E 014°17'3 6.3
2017-Dec-30 07:30N 35°57' E 014°16'0 0.3
2017-Dec-30 07:00N 35°56' E 014°16'2 3.6
2017-Dec-30 06:30N 35°55' E 014°17'2 3.6
2017-Dec-30 06:00N 35°53' E 014°17'2 3.1
2017-Dec-30 05:30N 35°51' E 014°18'2 3.1
2017-Dec-30 05:00N 35°50' E 014°20'2 3.3
2017-Dec-30 04:30N 35°49' E 014°21'2 3.2
2017-Dec-30 04:00N 35°49' E 014°23'2 4.7
2017-Dec-30 03:30N 35°50' E 014°21'3 6.3
2017-Dec-30 03:00N 35°52' E 014°18'3 5.9
2017-Dec-30 02:30N 35°55' E 014°17'3 5.3
2017-Dec-30 02:00N 35°58' E 014°17'2 3.9
2017-Dec-30 01:30N 35°56' E 014°17'1 1.4
2017-Dec-30 01:00N 35°56' E 014°18'3 5.9
2017-Dec-30 00:31N 35°58' E 014°16'2 4.2
2017-Dec-30 00:00N 35°60' E 014°14'2 3.8
2017-Dec-29 23:30N 35°58' E 014°15'2 3.6
2017-Dec-29 23:00N 35°56' E 014°15'2 3.4
2017-Dec-29 22:30N 35°55' E 014°16'2 3.5
2017-Dec-29 22:00N 35°53' E 014°17'2 3.2
2017-Dec-29 21:30N 35°52' E 014°18'2 3.0
2017-Dec-29 21:00N 35°51' E 014°20'1 2.7
2017-Dec-29 20:30N 35°50' E 014°21'1 2.3
2017-Dec-29 20:00N 35°49' E 014°21'1 2.0
2017-Dec-29 19:31N 35°48' E 014°22'1 1.6
2017-Dec-29 19:00N 35°47' E 014°22'1 2.1
2017-Dec-29 18:30N 35°46' E 014°23'1 2.3
2017-Dec-29 18:00N 35°46' E 014°24'20 5.2
2017-Dec-29 14:11N 35°49' E 014°48'2 7.7
2017-Dec-29 13:59N 35°51' E 014°49'  

Dump ship's entire track history